Decoded Metar for KFSM (FORT SMITH in AR, USA) (IATA:FSM) | Meteo·Mobile Aviation Weather
aviador You're here:

KFSM Decoded Metar

FORT SMITH in AR, USA
Report Time2018-10-15 17:53:00
UTC Time2018-10-15 19:00:41
Flight Rules Old
Wind340° at 08 kt
W.Decomp.*RWY 01: 6.6 kt HW 4.6 kt LCW
RWY 25: 0.7 kt HW 8.0 kt RCW
W.Rank340° ranks 25
Current wind is below 340° avg. (8.2)
Visibility9999 m
Phenomena:N/A
Clouds:Overcast 019 Hf
Expected CloudBase > 1,200 ft AGL from Temp-Dew spread
Ceiling1,900 ft
Temp08°C (ISA -6)
Dew Point05°C (82% RH)
AAT4.0°C
QNH1027 hPa
Density Alt-623 ft
Elevation459 ft
Report Wrong Elevation
Raw Report
KFSM 151753Z 34008KT 10SM OVC019 08/05 A3034 RMK AO2 SLP276 60000
T00830050 10094 20067 51017=

Extra information for KFSM:More info

Metar Taf Metar & Taf Last 4 Metars F.Rules Stats Wind Profile Meteogram Temp Stats Airport Information Weather charts Add Link Nearby VenuesMetar ALERT Operation Metar Decoded Social comments

AIRNAV info for KFSM